sensor_id;sensor_type;location;lat;lon;timestamp;P1;durP1;ratioP1;P2;durP2;ratioP2
73776;SDS011;62088;50.240;2.696;2023-03-24T00:00:24;6.45;;;2.75;;
73776;SDS011;62088;50.240;2.696;2023-03-24T00:02:51;6.20;;;2.83;;
73776;SDS011;62088;50.240;2.696;2023-03-24T00:05:20;4.78;;;2.60;;
73776;SDS011;62088;50.240;2.696;2023-03-24T00:07:48;5.53;;;2.58;;
73776;SDS011;62088;50.240;2.696;2023-03-24T00:10:20;6.25;;;3.05;;
73776;SDS011;62088;50.240;2.696;2023-03-24T00:12:49;4.47;;;2.45;;
73776;SDS011;62088;50.240;2.696;2023-03-24T00:15:17;7.95;;;3.22;;
73776;SDS011;62088;50.240;2.696;2023-03-24T00:17:46;5.50;;;2.90;;
73776;SDS011;62088;50.240;2.696;2023-03-24T00:20:16;6.45;;;3.15;;
73776;SDS011;62088;50.240;2.696;2023-03-24T00:22:48;6.78;;;3.33;;
73776;SDS011;62088;50.240;2.696;2023-03-24T00:25:23;2.95;;;1.50;;
73776;SDS011;62088;50.240;2.696;2023-03-24T00:28:02;3.50;;;1.38;;
73776;SDS011;62088;50.240;2.696;2023-03-24T00:30:31;2.80;;;0.98;;
73776;SDS011;62088;50.240;2.696;2023-03-24T00:33:00;2.92;;;1.00;;
73776;SDS011;62088;50.240;2.696;2023-03-24T00:35:28;3.08;;;0.88;;
73776;SDS011;62088;50.240;2.696;2023-03-24T00:37:55;2.53;;;0.73;;
73776;SDS011;62088;50.240;2.696;2023-03-24T00:40:22;2.25;;;0.70;;
73776;SDS011;62088;50.240;2.696;2023-03-24T00:42:50;3.08;;;0.80;;
73776;SDS011;62088;50.240;2.696;2023-03-24T00:45:20;1.98;;;0.60;;
73776;SDS011;62088;50.240;2.696;2023-03-24T00:47:51;4.70;;;0.90;;
73776;SDS011;62088;50.240;2.696;2023-03-24T00:50:23;4.00;;;0.80;;
73776;SDS011;62088;50.240;2.696;2023-03-24T00:52:53;1.77;;;0.68;;
73776;SDS011;62088;50.240;2.696;2023-03-24T00:55:21;2.63;;;0.70;;
73776;SDS011;62088;50.240;2.696;2023-03-24T00:57:48;1.85;;;0.70;;
73776;SDS011;62088;50.240;2.696;2023-03-24T01:00:18;3.13;;;0.98;;
73776;SDS011;62088;50.240;2.696;2023-03-24T01:02:52;2.47;;;0.70;;
73776;SDS011;62088;50.240;2.696;2023-03-24T01:05:26;2.72;;;0.80;;
73776;SDS011;62088;50.240;2.696;2023-03-24T01:07:55;4.93;;;0.90;;
73776;SDS011;62088;50.240;2.696;2023-03-24T01:10:24;3.25;;;0.85;;
73776;SDS011;62088;50.240;2.696;2023-03-24T01:12:56;3.70;;;0.77;;
73776;SDS011;62088;50.240;2.696;2023-03-24T01:15:26;5.22;;;1.00;;
73776;SDS011;62088;50.240;2.696;2023-03-24T01:17:55;2.78;;;0.80;;
73776;SDS011;62088;50.240;2.696;2023-03-24T01:20:23;3.83;;;1.13;;
73776;SDS011;62088;50.240;2.696;2023-03-24T01:22:50;4.80;;;1.10;;
73776;SDS011;62088;50.240;2.696;2023-03-24T01:25:19;5.88;;;1.13;;
73776;SDS011;62088;50.240;2.696;2023-03-24T01:27:48;3.80;;;0.80;;
73776;SDS011;62088;50.240;2.696;2023-03-24T01:30:17;2.70;;;0.90;;
73776;SDS011;62088;50.240;2.696;2023-03-24T01:32:47;3.40;;;0.85;;
73776;SDS011;62088;50.240;2.696;2023-03-24T01:35:14;3.30;;;1.08;;
73776;SDS011;62088;50.240;2.696;2023-03-24T01:37:41;3.40;;;0.80;;
73776;SDS011;62088;50.240;2.696;2023-03-24T01:40:10;5.57;;;1.13;;
73776;SDS011;62088;50.240;2.696;2023-03-24T01:42:42;4.25;;;1.20;;
73776;SDS011;62088;50.240;2.696;2023-03-24T01:48:15;3.53;;;1.15;;
73776;SDS011;62088;50.240;2.696;2023-03-24T01:50:49;2.58;;;0.75;;
73776;SDS011;62088;50.240;2.696;2023-03-24T01:53:21;7.32;;;1.23;;
73776;SDS011;62088;50.240;2.696;2023-03-24T01:55:49;3.50;;;0.90;;
73776;SDS011;62088;50.240;2.696;2023-03-24T01:58:20;6.60;;;1.55;;
73776;SDS011;62088;50.240;2.696;2023-03-24T02:01:01;4.68;;;1.40;;
73776;SDS011;62088;50.240;2.696;2023-03-24T02:03:50;3.50;;;1.10;;
73776;SDS011;62088;50.240;2.696;2023-03-24T02:06:18;4.53;;;1.10;;
73776;SDS011;62088;50.240;2.696;2023-03-24T02:08:54;5.45;;;1.17;;
73776;SDS011;62088;50.240;2.696;2023-03-24T02:11:27;3.35;;;1.00;;
73776;SDS011;62088;50.240;2.696;2023-03-24T02:14:00;4.15;;;1.00;;
73776;SDS011;62088;50.240;2.696;2023-03-24T02:30:04;2.95;;;0.80;;
73776;SDS011;62088;50.240;2.696;2023-03-24T02:38:44;2.63;;;0.77;;
73776;SDS011;62088;50.240;2.696;2023-03-24T02:41:41;3.83;;;1.00;;
73776;SDS011;62088;50.240;2.696;2023-03-24T02:44:46;2.65;;;1.00;;
73776;SDS011;62088;50.240;2.696;2023-03-24T02:47:34;2.73;;;0.90;;
73776;SDS011;62088;50.240;2.696;2023-03-24T02:53:04;4.57;;;1.10;;
73776;SDS011;62088;50.240;2.696;2023-03-24T02:55:53;4.50;;;1.27;;
73776;SDS011;62088;50.240;2.696;2023-03-24T03:01:22;3.85;;;1.15;;
73776;SDS011;62088;50.240;2.696;2023-03-24T03:04:17;3.97;;;1.10;;
73776;SDS011;62088;50.240;2.696;2023-03-24T03:06:50;4.32;;;1.10;;
73776;SDS011;62088;50.240;2.696;2023-03-24T03:09:23;4.20;;;1.38;;
73776;SDS011;62088;50.240;2.696;2023-03-24T03:11:54;5.07;;;1.23;;
73776;SDS011;62088;50.240;2.696;2023-03-24T03:14:35;6.38;;;1.35;;
73776;SDS011;62088;50.240;2.696;2023-03-24T03:17:14;9.57;;;1.58;;
73776;SDS011;62088;50.240;2.696;2023-03-24T03:19:50;3.53;;;1.00;;
73776;SDS011;62088;50.240;2.696;2023-03-24T03:22:22;4.88;;;1.20;;
73776;SDS011;62088;50.240;2.696;2023-03-24T03:24:53;4.22;;;1.30;;
73776;SDS011;62088;50.240;2.696;2023-03-24T03:27:23;5.32;;;1.42;;
73776;SDS011;62088;50.240;2.696;2023-03-24T03:29:58;4.55;;;1.30;;
73776;SDS011;62088;50.240;2.696;2023-03-24T03:32:30;8.20;;;1.58;;
73776;SDS011;62088;50.240;2.696;2023-03-24T03:35:21;5.20;;;1.20;;
73776;SDS011;62088;50.240;2.696;2023-03-24T03:40:42;5.07;;;1.40;;
73776;SDS011;62088;50.240;2.696;2023-03-24T03:43:30;6.50;;;2.05;;
73776;SDS011;62088;50.240;2.696;2023-03-24T03:45:59;8.30;;;1.83;;
73776;SDS011;62088;50.240;2.696;2023-03-24T03:48:33;4.82;;;1.40;;
73776;SDS011;62088;50.240;2.696;2023-03-24T03:51:01;6.78;;;1.65;;
73776;SDS011;62088;50.240;2.696;2023-03-24T03:53:48;7.32;;;1.55;;
73776;SDS011;62088;50.240;2.696;2023-03-24T03:56:21;4.63;;;1.58;;
73776;SDS011;62088;50.240;2.696;2023-03-24T03:59:01;6.75;;;1.80;;
73776;SDS011;62088;50.240;2.696;2023-03-24T04:01:30;8.25;;;1.95;;
73776;SDS011;62088;50.240;2.696;2023-03-24T04:04:35;7.13;;;1.52;;
73776;SDS011;62088;50.240;2.696;2023-03-24T04:28:08;7.68;;;1.98;;
73776;SDS011;62088;50.240;2.696;2023-03-24T04:33:04;6.53;;;1.73;;
73776;SDS011;62088;50.240;2.696;2023-03-24T04:35:36;6.20;;;1.88;;
73776;SDS011;62088;50.240;2.696;2023-03-24T04:38:22;5.07;;;1.60;;
73776;SDS011;62088;50.240;2.696;2023-03-24T04:41:11;6.32;;;1.83;;
73776;SDS011;62088;50.240;2.696;2023-03-24T04:43:49;9.23;;;2.45;;
73776;SDS011;62088;50.240;2.696;2023-03-24T04:46:17;4.90;;;1.83;;
73776;SDS011;62088;50.240;2.696;2023-03-24T04:48:50;6.25;;;2.33;;
73776;SDS011;62088;50.240;2.696;2023-03-24T04:51:22;7.70;;;2.08;;
73776;SDS011;62088;50.240;2.696;2023-03-24T04:54:05;7.30;;;2.20;;
73776;SDS011;62088;50.240;2.696;2023-03-24T04:56:40;9.18;;;2.20;;
73776;SDS011;62088;50.240;2.696;2023-03-24T04:59:27;8.95;;;2.25;;
73776;SDS011;62088;50.240;2.696;2023-03-24T05:01:55;7.80;;;2.35;;
73776;SDS011;62088;50.240;2.696;2023-03-24T05:04:32;7.63;;;2.40;;
73776;SDS011;62088;50.240;2.696;2023-03-24T05:07:12;6.78;;;1.90;;
73776;SDS011;62088;50.240;2.696;2023-03-24T05:09:42;8.00;;;2.20;;
73776;SDS011;62088;50.240;2.696;2023-03-24T05:12:09;8.52;;;2.13;;
73776;SDS011;62088;50.240;2.696;2023-03-24T05:14:58;9.75;;;2.22;;
73776;SDS011;62088;50.240;2.696;2023-03-24T05:17:25;7.43;;;1.80;;
73776;SDS011;62088;50.240;2.696;2023-03-24T05:19:52;7.07;;;2.08;;
73776;SDS011;62088;50.240;2.696;2023-03-24T05:22:20;5.20;;;1.90;;
73776;SDS011;62088;50.240;2.696;2023-03-24T05:24:47;5.20;;;1.52;;
73776;SDS011;62088;50.240;2.696;2023-03-24T05:27:14;6.47;;;1.85;;
73776;SDS011;62088;50.240;2.696;2023-03-24T05:29:41;6.72;;;1.60;;
73776;SDS011;62088;50.240;2.696;2023-03-24T05:32:13;6.15;;;1.73;;
73776;SDS011;62088;50.240;2.696;2023-03-24T05:34:41;10.20;;;2.33;;
73776;SDS011;62088;50.240;2.696;2023-03-24T05:37:10;7.38;;;2.22;;
73776;SDS011;62088;50.240;2.696;2023-03-24T05:39:39;7.70;;;3.25;;
73776;SDS011;62088;50.240;2.696;2023-03-24T05:42:20;7.05;;;2.67;;
73776;SDS011;62088;50.240;2.696;2023-03-24T05:44:47;10.15;;;3.08;;
73776;SDS011;62088;50.240;2.696;2023-03-24T05:47:22;6.35;;;2.10;;
73776;SDS011;62088;50.240;2.696;2023-03-24T05:49:50;9.18;;;1.60;;
73776;SDS011;62088;50.240;2.696;2023-03-24T05:52:18;7.30;;;1.38;;
73776;SDS011;62088;50.240;2.696;2023-03-24T05:54:47;6.57;;;1.60;;
73776;SDS011;62088;50.240;2.696;2023-03-24T05:57:21;5.13;;;1.87;;
73776;SDS011;62088;50.240;2.696;2023-03-24T06:00:14;8.63;;;1.92;;
73776;SDS011;62088;50.240;2.696;2023-03-24T06:02:55;9.95;;;1.80;;
73776;SDS011;62088;50.240;2.696;2023-03-24T06:05:27;7.25;;;2.15;;
73776;SDS011;62088;50.240;2.696;2023-03-24T06:07:54;3.50;;;0.73;;
73776;SDS011;62088;50.240;2.696;2023-03-24T06:10:25;6.22;;;1.25;;
73776;SDS011;62088;50.240;2.696;2023-03-24T06:12:55;7.22;;;1.55;;
73776;SDS011;62088;50.240;2.696;2023-03-24T06:15:23;6.63;;;1.90;;
73776;SDS011;62088;50.240;2.696;2023-03-24T06:18:05;8.93;;;1.90;;
73776;SDS011;62088;50.240;2.696;2023-03-24T06:20:33;8.40;;;2.15;;
73776;SDS011;62088;50.240;2.696;2023-03-24T06:23:14;6.80;;;1.75;;
73776;SDS011;62088;50.240;2.696;2023-03-24T06:25:52;7.28;;;1.67;;
73776;SDS011;62088;50.240;2.696;2023-03-24T06:28:22;7.82;;;1.90;;
73776;SDS011;62088;50.240;2.696;2023-03-24T06:30:58;9.73;;;1.98;;
73776;SDS011;62088;50.240;2.696;2023-03-24T06:33:33;7.03;;;1.52;;
73776;SDS011;62088;50.240;2.696;2023-03-24T06:36:05;4.45;;;1.60;;
73776;SDS011;62088;50.240;2.696;2023-03-24T06:38:33;6.05;;;1.38;;
73776;SDS011;62088;50.240;2.696;2023-03-24T06:41:02;9.60;;;1.80;;
73776;SDS011;62088;50.240;2.696;2023-03-24T06:43:30;7.20;;;1.60;;
73776;SDS011;62088;50.240;2.696;2023-03-24T06:45:58;5.32;;;1.52;;
73776;SDS011;62088;50.240;2.696;2023-03-24T06:48:27;6.03;;;1.58;;
73776;SDS011;62088;50.240;2.696;2023-03-24T06:51:00;7.13;;;1.30;;
73776;SDS011;62088;50.240;2.696;2023-03-24T06:53:27;6.22;;;1.48;;
73776;SDS011;62088;50.240;2.696;2023-03-24T06:55:54;6.50;;;1.48;;
73776;SDS011;62088;50.240;2.696;2023-03-24T06:58:24;8.25;;;1.40;;
73776;SDS011;62088;50.240;2.696;2023-03-24T07:01:02;7.18;;;1.58;;
73776;SDS011;62088;50.240;2.696;2023-03-24T07:03:41;8.55;;;1.67;;
73776;SDS011;62088;50.240;2.696;2023-03-24T07:06:14;4.50;;;1.42;;
73776;SDS011;62088;50.240;2.696;2023-03-24T07:08:43;4.43;;;1.33;;
73776;SDS011;62088;50.240;2.696;2023-03-24T07:11:11;7.07;;;1.60;;
73776;SDS011;62088;50.240;2.696;2023-03-24T07:13:47;6.95;;;1.80;;
73776;SDS011;62088;50.240;2.696;2023-03-24T07:16:15;5.72;;;1.30;;
73776;SDS011;62088;50.240;2.696;2023-03-24T07:18:43;7.85;;;1.67;;
73776;SDS011;62088;50.240;2.696;2023-03-24T07:21:10;6.85;;;1.95;;
73776;SDS011;62088;50.240;2.696;2023-03-24T07:23:37;4.47;;;1.30;;
73776;SDS011;62088;50.240;2.696;2023-03-24T07:26:09;5.03;;;1.83;;
73776;SDS011;62088;50.240;2.696;2023-03-24T07:28:45;6.22;;;1.45;;
73776;SDS011;62088;50.240;2.696;2023-03-24T07:31:35;8.50;;;3.00;;
73776;SDS011;62088;50.240;2.696;2023-03-24T07:34:08;6.88;;;1.52;;
73776;SDS011;62088;50.240;2.696;2023-03-24T07:36:37;6.88;;;1.30;;
73776;SDS011;62088;50.240;2.696;2023-03-24T07:39:08;5.82;;;2.15;;
73776;SDS011;62088;50.240;2.696;2023-03-24T07:41:35;8.57;;;2.03;;
73776;SDS011;62088;50.240;2.696;2023-03-24T07:44:10;4.82;;;1.50;;
73776;SDS011;62088;50.240;2.696;2023-03-24T07:46:47;6.88;;;1.67;;
73776;SDS011;62088;50.240;2.696;2023-03-24T07:49:15;7.72;;;1.50;;
73776;SDS011;62088;50.240;2.696;2023-03-24T07:52:07;9.98;;;2.40;;
73776;SDS011;62088;50.240;2.696;2023-03-24T07:54:40;5.40;;;1.60;;
73776;SDS011;62088;50.240;2.696;2023-03-24T07:57:11;8.68;;;1.40;;
73776;SDS011;62088;50.240;2.696;2023-03-24T07:59:39;7.35;;;1.85;;
73776;SDS011;62088;50.240;2.696;2023-03-24T08:02:17;5.25;;;1.63;;
73776;SDS011;62088;50.240;2.696;2023-03-24T08:04:51;8.23;;;1.35;;
73776;SDS011;62088;50.240;2.696;2023-03-24T08:07:41;7.00;;;1.92;;
73776;SDS011;62088;50.240;2.696;2023-03-24T08:10:12;7.47;;;1.60;;
73776;SDS011;62088;50.240;2.696;2023-03-24T08:12:40;8.18;;;1.83;;
73776;SDS011;62088;50.240;2.696;2023-03-24T08:15:08;8.35;;;2.35;;
73776;SDS011;62088;50.240;2.696;2023-03-24T08:17:35;12.23;;;2.00;;
73776;SDS011;62088;50.240;2.696;2023-03-24T08:20:03;6.90;;;1.70;;
73776;SDS011;62088;50.240;2.696;2023-03-24T08:22:33;10.30;;;2.00;;
73776;SDS011;62088;50.240;2.696;2023-03-24T08:25:05;9.65;;;2.10;;
73776;SDS011;62088;50.240;2.696;2023-03-24T08:27:36;7.55;;;1.58;;
73776;SDS011;62088;50.240;2.696;2023-03-24T08:30:04;9.65;;;1.92;;
73776;SDS011;62088;50.240;2.696;2023-03-24T08:32:33;8.65;;;2.58;;
73776;SDS011;62088;50.240;2.696;2023-03-24T08:35:01;11.52;;;2.08;;
73776;SDS011;62088;50.240;2.696;2023-03-24T08:37:30;7.25;;;1.77;;
73776;SDS011;62088;50.240;2.696;2023-03-24T08:39:57;7.88;;;2.05;;
73776;SDS011;62088;50.240;2.696;2023-03-24T08:42:30;8.52;;;2.15;;
73776;SDS011;62088;50.240;2.696;2023-03-24T08:44:57;7.10;;;1.60;;
73776;SDS011;62088;50.240;2.696;2023-03-24T08:47:24;6.55;;;1.75;;
73776;SDS011;62088;50.240;2.696;2023-03-24T08:49:55;9.82;;;1.83;;
73776;SDS011;62088;50.240;2.696;2023-03-24T08:52:25;10.20;;;2.00;;
73776;SDS011;62088;50.240;2.696;2023-03-24T08:54:51;9.75;;;2.33;;
73776;SDS011;62088;50.240;2.696;2023-03-24T08:57:19;9.48;;;2.10;;
73776;SDS011;62088;50.240;2.696;2023-03-24T08:59:47;7.30;;;2.22;;
73776;SDS011;62088;50.240;2.696;2023-03-24T09:02:16;10.98;;;1.80;;
73776;SDS011;62088;50.240;2.696;2023-03-24T09:04:43;8.48;;;1.80;;
73776;SDS011;62088;50.240;2.696;2023-03-24T09:07:11;7.18;;;1.50;;
73776;SDS011;62088;50.240;2.696;2023-03-24T09:09:38;11.30;;;2.40;;
73776;SDS011;62088;50.240;2.696;2023-03-24T09:12:05;6.30;;;1.40;;
73776;SDS011;62088;50.240;2.696;2023-03-24T09:14:33;7.13;;;1.70;;
73776;SDS011;62088;50.240;2.696;2023-03-24T09:17:00;13.27;;;2.35;;
73776;SDS011;62088;50.240;2.696;2023-03-24T09:19:27;9.85;;;1.70;;
73776;SDS011;62088;50.240;2.696;2023-03-24T09:21:54;7.65;;;1.35;;
73776;SDS011;62088;50.240;2.696;2023-03-24T09:24:21;5.70;;;1.40;;
73776;SDS011;62088;50.240;2.696;2023-03-24T09:26:48;6.47;;;2.03;;
73776;SDS011;62088;50.240;2.696;2023-03-24T09:29:15;9.68;;;1.88;;
73776;SDS011;62088;50.240;2.696;2023-03-24T09:31:42;6.97;;;1.77;;
73776;SDS011;62088;50.240;2.696;2023-03-24T09:34:09;8.18;;;1.70;;
73776;SDS011;62088;50.240;2.696;2023-03-24T09:36:36;7.88;;;2.22;;
73776;SDS011;62088;50.240;2.696;2023-03-24T09:39:03;7.22;;;1.70;;
73776;SDS011;62088;50.240;2.696;2023-03-24T09:41:30;6.80;;;1.80;;
73776;SDS011;62088;50.240;2.696;2023-03-24T09:44:02;6.60;;;1.52;;
73776;SDS011;62088;50.240;2.696;2023-03-24T09:46:43;8.20;;;2.47;;
73776;SDS011;62088;50.240;2.696;2023-03-24T09:49:23;6.93;;;1.77;;
73776;SDS011;62088;50.240;2.696;2023-03-24T09:51:58;7.57;;;1.90;;
73776;SDS011;62088;50.240;2.696;2023-03-24T09:54:50;11.02;;;1.77;;
73776;SDS011;62088;50.240;2.696;2023-03-24T09:57:21;8.88;;;2.17;;
73776;SDS011;62088;50.240;2.696;2023-03-24T10:00:35;8.85;;;1.63;;
73776;SDS011;62088;50.240;2.696;2023-03-24T10:02:59;7.55;;;1.80;;
73776;SDS011;62088;50.240;2.696;2023-03-24T10:05:52;6.20;;;1.65;;
73776;SDS011;62088;50.240;2.696;2023-03-24T10:08:24;5.18;;;1.40;;
73776;SDS011;62088;50.240;2.696;2023-03-24T10:11:02;8.23;;;1.92;;
73776;SDS011;62088;50.240;2.696;2023-03-24T10:16:21;9.68;;;2.13;;
73776;SDS011;62088;50.240;2.696;2023-03-24T10:19:07;8.15;;;1.90;;
73776;SDS011;62088;50.240;2.696;2023-03-24T10:21:51;8.15;;;1.83;;
73776;SDS011;62088;50.240;2.696;2023-03-24T10:24:31;8.15;;;1.95;;
73776;SDS011;62088;50.240;2.696;2023-03-24T10:27:05;6.50;;;1.90;;
73776;SDS011;62088;50.240;2.696;2023-03-24T10:29:42;10.77;;;2.00;;
73776;SDS011;62088;50.240;2.696;2023-03-24T10:32:18;7.88;;;1.98;;
73776;SDS011;62088;50.240;2.696;2023-03-24T10:34:53;8.93;;;1.92;;
73776;SDS011;62088;50.240;2.696;2023-03-24T10:37:26;8.85;;;2.00;;
73776;SDS011;62088;50.240;2.696;2023-03-24T10:39:55;6.00;;;1.77;;
73776;SDS011;62088;50.240;2.696;2023-03-24T10:42:37;9.25;;;1.90;;
73776;SDS011;62088;50.240;2.696;2023-03-24T10:45:10;11.35;;;2.30;;
73776;SDS011;62088;50.240;2.696;2023-03-24T10:47:39;7.40;;;1.75;;
73776;SDS011;62088;50.240;2.696;2023-03-24T10:50:09;7.68;;;1.88;;
73776;SDS011;62088;50.240;2.696;2023-03-24T10:52:42;9.50;;;2.03;;
73776;SDS011;62088;50.240;2.696;2023-03-24T10:55:22;10.13;;;1.98;;
73776;SDS011;62088;50.240;2.696;2023-03-24T10:57:55;11.27;;;2.85;;
73776;SDS011;62088;50.240;2.696;2023-03-24T11:00:28;10.38;;;2.03;;
73776;SDS011;62088;50.240;2.696;2023-03-24T11:02:58;8.13;;;1.60;;
73776;SDS011;62088;50.240;2.696;2023-03-24T11:05:28;7.55;;;1.70;;
73776;SDS011;62088;50.240;2.696;2023-03-24T11:08:13;7.07;;;1.98;;
73776;SDS011;62088;50.240;2.696;2023-03-24T11:13:58;9.48;;;2.00;;
73776;SDS011;62088;50.240;2.696;2023-03-24T11:16:28;10.07;;;2.25;;
73776;SDS011;62088;50.240;2.696;2023-03-24T11:19:04;8.55;;;1.70;;
73776;SDS011;62088;50.240;2.696;2023-03-24T11:21:35;6.65;;;1.80;;
73776;SDS011;62088;50.240;2.696;2023-03-24T11:24:13;10.93;;;2.13;;
73776;SDS011;62088;50.240;2.696;2023-03-24T11:26:49;6.50;;;1.70;;
73776;SDS011;62088;50.240;2.696;2023-03-24T11:29:22;11.80;;;1.80;;
73776;SDS011;62088;50.240;2.696;2023-03-24T11:31:57;6.68;;;1.45;;
73776;SDS011;62088;50.240;2.696;2023-03-24T11:34:31;7.00;;;1.75;;
73776;SDS011;62088;50.240;2.696;2023-03-24T11:37:04;7.55;;;1.48;;
73776;SDS011;62088;50.240;2.696;2023-03-24T11:39:37;6.67;;;1.50;;
73776;SDS011;62088;50.240;2.696;2023-03-24T11:47:09;7.40;;;1.30;;
73776;SDS011;62088;50.240;2.696;2023-03-24T11:52:36;8.73;;;1.77;;
73776;SDS011;62088;50.240;2.696;2023-03-24T11:55:21;6.60;;;1.55;;
73776;SDS011;62088;50.240;2.696;2023-03-24T11:57:55;6.63;;;1.83;;
73776;SDS011;62088;50.240;2.696;2023-03-24T12:03:54;7.38;;;1.55;;
73776;SDS011;62088;50.240;2.696;2023-03-24T12:06:46;6.70;;;1.27;;
73776;SDS011;62088;50.240;2.696;2023-03-24T12:09:37;3.10;;;0.80;;
73776;SDS011;62088;50.240;2.696;2023-03-24T12:20:48;5.22;;;1.33;;
73776;SDS011;62088;50.240;2.696;2023-03-24T12:26:29;6.57;;;1.42;;
73776;SDS011;62088;50.240;2.696;2023-03-24T12:31:59;3.40;;;1.00;;
73776;SDS011;62088;50.240;2.696;2023-03-24T12:37:30;4.38;;;1.27;;
73776;SDS011;62088;50.240;2.696;2023-03-24T12:43:16;5.68;;;1.27;;
73776;SDS011;62088;50.240;2.696;2023-03-24T12:45:41;6.47;;;1.17;;
73776;SDS011;62088;50.240;2.696;2023-03-24T12:56:55;2.35;;;0.70;;
73776;SDS011;62088;50.240;2.696;2023-03-24T13:02:08;2.35;;;0.70;;
73776;SDS011;62088;50.240;2.696;2023-03-24T13:04:47;3.38;;;0.65;;
73776;SDS011;62088;50.240;2.696;2023-03-24T13:07:16;3.90;;;1.05;;
73776;SDS011;62088;50.240;2.696;2023-03-24T13:09:50;3.97;;;1.13;;
73776;SDS011;62088;50.240;2.696;2023-03-24T13:12:44;4.22;;;1.00;;
73776;SDS011;62088;50.240;2.696;2023-03-24T13:15:37;7.07;;;2.00;;
73776;SDS011;62088;50.240;2.696;2023-03-24T13:28:59;4.82;;;0.93;;
73776;SDS011;62088;50.240;2.696;2023-03-24T13:31:30;5.65;;;1.20;;
73776;SDS011;62088;50.240;2.696;2023-03-24T13:34:08;4.15;;;0.90;;
73776;SDS011;62088;50.240;2.696;2023-03-24T13:37:09;4.28;;;1.25;;
73776;SDS011;62088;50.240;2.696;2023-03-24T13:39:42;5.00;;;1.27;;
73776;SDS011;62088;50.240;2.696;2023-03-24T13:42:26;4.95;;;1.05;;
73776;SDS011;62088;50.240;2.696;2023-03-24T13:44:55;7.80;;;1.42;;
73776;SDS011;62088;50.240;2.696;2023-03-24T13:47:25;4.50;;;0.88;;
73776;SDS011;62088;50.240;2.696;2023-03-24T13:52:35;4.03;;;1.27;;
73776;SDS011;62088;50.240;2.696;2023-03-24T13:55:09;4.75;;;1.10;;
73776;SDS011;62088;50.240;2.696;2023-03-24T13:57:59;6.57;;;1.35;;
73776;SDS011;62088;50.240;2.696;2023-03-24T14:00:30;5.75;;;1.23;;
73776;SDS011;62088;50.240;2.696;2023-03-24T14:03:40;6.18;;;1.13;;
73776;SDS011;62088;50.240;2.696;2023-03-24T14:06:02;4.75;;;1.15;;
73776;SDS011;62088;50.240;2.696;2023-03-24T14:14:35;4.32;;;1.13;;
73776;SDS011;62088;50.240;2.696;2023-03-24T14:19:35;3.60;;;0.95;;
73776;SDS011;62088;50.240;2.696;2023-03-24T14:24:42;5.15;;;0.93;;
73776;SDS011;62088;50.240;2.696;2023-03-24T14:32:37;3.72;;;0.80;;
73776;SDS011;62088;50.240;2.696;2023-03-24T14:38:03;4.80;;;1.20;;
73776;SDS011;62088;50.240;2.696;2023-03-24T14:40:45;4.32;;;0.80;;
73776;SDS011;62088;50.240;2.696;2023-03-24T14:43:17;3.75;;;1.20;;
73776;SDS011;62088;50.240;2.696;2023-03-24T14:45:51;3.00;;;0.77;;
73776;SDS011;62088;50.240;2.696;2023-03-24T14:48:22;4.50;;;1.17;;
73776;SDS011;62088;50.240;2.696;2023-03-24T14:54:03;3.55;;;0.80;;
73776;SDS011;62088;50.240;2.696;2023-03-24T14:56:34;3.40;;;0.82;;
73776;SDS011;62088;50.240;2.696;2023-03-24T14:59:09;3.42;;;0.75;;
73776;SDS011;62088;50.240;2.696;2023-03-24T15:02:23;3.40;;;0.73;;
73776;SDS011;62088;50.240;2.696;2023-03-24T15:08:17;4.25;;;1.10;;
73776;SDS011;62088;50.240;2.696;2023-03-24T15:10:48;2.90;;;0.80;;
73776;SDS011;62088;50.240;2.696;2023-03-24T15:15:54;3.50;;;0.85;;
73776;SDS011;62088;50.240;2.696;2023-03-24T15:18:21;4.32;;;1.10;;
73776;SDS011;62088;50.240;2.696;2023-03-24T15:20:50;4.75;;;0.85;;
73776;SDS011;62088;50.240;2.696;2023-03-24T15:23:24;2.97;;;0.90;;
73776;SDS011;62088;50.240;2.696;2023-03-24T15:25:53;3.60;;;1.13;;
73776;SDS011;62088;50.240;2.696;2023-03-24T15:28:28;2.78;;;0.60;;
73776;SDS011;62088;50.240;2.696;2023-03-24T15:30:56;1.83;;;0.50;;
73776;SDS011;62088;50.240;2.696;2023-03-24T15:33:26;3.58;;;0.63;;
73776;SDS011;62088;50.240;2.696;2023-03-24T15:35:58;3.28;;;0.70;;
73776;SDS011;62088;50.240;2.696;2023-03-24T15:38:27;3.88;;;0.63;;
73776;SDS011;62088;50.240;2.696;2023-03-24T15:40:57;2.08;;;0.75;;
73776;SDS011;62088;50.240;2.696;2023-03-24T15:43:39;1.67;;;0.60;;
73776;SDS011;62088;50.240;2.696;2023-03-24T15:46:19;2.58;;;0.60;;
73776;SDS011;62088;50.240;2.696;2023-03-24T15:48:53;3.05;;;0.82;;
73776;SDS011;62088;50.240;2.696;2023-03-24T15:54:23;3.60;;;0.80;;
73776;SDS011;62088;50.240;2.696;2023-03-24T15:57:08;3.38;;;1.00;;
73776;SDS011;62088;50.240;2.696;2023-03-24T15:59:44;3.58;;;0.95;;
73776;SDS011;62088;50.240;2.696;2023-03-24T16:02:24;4.07;;;1.10;;
73776;SDS011;62088;50.240;2.696;2023-03-24T16:05:20;3.10;;;1.10;;
73776;SDS011;62088;50.240;2.696;2023-03-24T16:13:13;2.28;;;0.68;;
73776;SDS011;62088;50.240;2.696;2023-03-24T16:18:25;2.63;;;0.70;;
73776;SDS011;62088;50.240;2.696;2023-03-24T16:20:59;1.40;;;0.50;;
73776;SDS011;62088;50.240;2.696;2023-03-24T16:23:28;2.17;;;0.60;;
73776;SDS011;62088;50.240;2.696;2023-03-24T16:25:56;2.47;;;0.80;;
73776;SDS011;62088;50.240;2.696;2023-03-24T16:28:23;3.90;;;0.90;;
73776;SDS011;62088;50.240;2.696;2023-03-24T16:31:00;1.95;;;0.70;;
73776;SDS011;62088;50.240;2.696;2023-03-24T16:33:29;2.25;;;0.70;;
73776;SDS011;62088;50.240;2.696;2023-03-24T16:35:56;1.98;;;0.73;;
73776;SDS011;62088;50.240;2.696;2023-03-24T16:38:24;2.25;;;0.60;;
73776;SDS011;62088;50.240;2.696;2023-03-24T16:40:53;3.25;;;0.88;;
73776;SDS011;62088;50.240;2.696;2023-03-24T16:43:21;2.10;;;0.68;;
73776;SDS011;62088;50.240;2.696;2023-03-24T16:45:48;2.72;;;0.68;;
73776;SDS011;62088;50.240;2.696;2023-03-24T16:48:16;3.35;;;0.85;;
73776;SDS011;62088;50.240;2.696;2023-03-24T16:50:44;2.58;;;0.80;;
73776;SDS011;62088;50.240;2.696;2023-03-24T16:53:16;4.22;;;1.00;;
73776;SDS011;62088;50.240;2.696;2023-03-24T16:55:44;4.43;;;0.98;;
73776;SDS011;62088;50.240;2.696;2023-03-24T16:58:13;3.90;;;0.73;;
73776;SDS011;62088;50.240;2.696;2023-03-24T17:00:42;2.47;;;0.73;;
73776;SDS011;62088;50.240;2.696;2023-03-24T17:03:11;3.85;;;1.10;;
73776;SDS011;62088;50.240;2.696;2023-03-24T17:05:41;1.80;;;0.73;;
73776;SDS011;62088;50.240;2.696;2023-03-24T17:08:14;3.45;;;1.17;;
73776;SDS011;62088;50.240;2.696;2023-03-24T17:10:42;3.20;;;0.70;;
73776;SDS011;62088;50.240;2.696;2023-03-24T17:13:15;3.53;;;0.88;;
73776;SDS011;62088;50.240;2.696;2023-03-24T17:15:47;3.65;;;0.85;;
73776;SDS011;62088;50.240;2.696;2023-03-24T17:18:14;2.03;;;0.77;;
73776;SDS011;62088;50.240;2.696;2023-03-24T17:20:42;5.72;;;0.90;;
73776;SDS011;62088;50.240;2.696;2023-03-24T17:23:10;4.03;;;1.17;;
73776;SDS011;62088;50.240;2.696;2023-03-24T17:25:39;5.60;;;1.10;;
73776;SDS011;62088;50.240;2.696;2023-03-24T17:28:11;5.63;;;1.25;;
73776;SDS011;62088;50.240;2.696;2023-03-24T17:30:42;3.83;;;1.40;;
73776;SDS011;62088;50.240;2.696;2023-03-24T17:33:12;3.40;;;1.02;;
73776;SDS011;62088;50.240;2.696;2023-03-24T17:35:42;4.28;;;1.20;;
73776;SDS011;62088;50.240;2.696;2023-03-24T17:38:12;3.45;;;1.10;;
73776;SDS011;62088;50.240;2.696;2023-03-24T17:40:41;3.38;;;1.27;;
73776;SDS011;62088;50.240;2.696;2023-03-24T17:43:09;5.30;;;1.80;;
73776;SDS011;62088;50.240;2.696;2023-03-24T17:45:38;3.78;;;1.00;;
73776;SDS011;62088;50.240;2.696;2023-03-24T17:48:06;2.53;;;0.90;;
73776;SDS011;62088;50.240;2.696;2023-03-24T17:50:33;2.90;;;0.90;;
73776;SDS011;62088;50.240;2.696;2023-03-24T17:53:00;5.47;;;1.00;;
73776;SDS011;62088;50.240;2.696;2023-03-24T17:55:27;2.55;;;0.70;;
73776;SDS011;62088;50.240;2.696;2023-03-24T17:57:54;2.42;;;0.68;;
73776;SDS011;62088;50.240;2.696;2023-03-24T18:00:21;4.05;;;1.05;;